Time;durP1;ratioP1;P1;durP2;ratioP2;P2;SDS_P1;SDS_P2;PMS_P1;PMS_P2;Temp;Humidity;BMP_temperature;BMP_pressure;BME280_temperature;BME280_humidity;BME280_pressure;Samples;Min_cycle;Max_cycle;Signal;HPM_P1;HPM_P2
2024/03/14 00:02:23;;;;;;;32.90;18.33;;;;;;;2.41;100.00;100278.05;124113;1099;104274;-81
2024/03/14 00:04:54;;;;;;;33.73;18.40;;;;;;;2.38;100.00;100280.44;124032;1099;104331;-80
2024/03/14 00:07:26;;;;;;;31.77;18.13;;;;;;;2.43;100.00;100284.25;124039;1099;104255;-81
2024/03/14 00:09:57;;;;;;;34.07;18.73;;;;;;;2.42;100.00;100279.85;123961;1099;104223;-81
2024/03/14 00:12:28;;;;;;;32.00;17.10;;;;;;;2.44;100.00;100282.55;123874;1099;104514;-81
2024/03/14 00:15:00;;;;;;;32.23;18.17;;;;;;;2.44;100.00;100270.48;124075;1099;104290;-81
2024/03/14 00:17:32;;;;;;;36.27;19.53;;;;;;;2.50;100.00;100270.87;123765;1099;104331;-80
2024/03/14 00:20:05;;;;;;;31.20;17.93;;;;;;;2.47;100.00;100265.49;124142;1099;104290;-80
2024/03/14 00:22:36;;;;;;;33.50;18.47;;;;;;;2.46;100.00;100273.16;123751;1099;104275;-80
2024/03/14 00:25:09;;;;;;;36.50;19.40;;;;;;;2.46;100.00;100271.50;123983;1099;104272;-80
2024/03/14 00:27:43;;;;;;;32.30;18.50;;;;;;;2.45;100.00;100269.69;123886;1099;104249;-81
2024/03/14 00:30:18;;;;;;;37.00;19.17;;;;;;;2.48;100.00;100266.41;123977;1099;104347;-80
2024/03/14 00:32:50;;;;;;;31.50;17.85;;;;;;;2.50;100.00;100267.39;123979;1099;104345;-81
2024/03/14 00:35:21;;;;;;;32.23;17.70;;;;;;;2.50;100.00;100267.39;123650;1099;104354;-81
2024/03/14 00:37:53;;;;;;;32.07;18.30;;;;;;;2.49;100.00;100266.52;123946;1099;104273;-80
2024/03/14 00:40:24;;;;;;;31.90;18.40;;;;;;;2.51;100.00;100266.61;123855;1099;104357;-81
2024/03/14 00:42:57;;;;;;;32.23;18.00;;;;;;;2.55;100.00;100255.62;123961;1099;104290;-81
2024/03/14 00:45:28;;;;;;;31.50;18.10;;;;;;;2.54;100.00;100258.12;123891;1099;104194;-81
2024/03/14 00:47:59;;;;;;;33.27;18.40;;;;;;;2.48;100.00;100259.53;123885;1099;104307;-81
2024/03/14 00:50:33;;;;;;;31.30;17.70;;;;;;;2.43;100.00;100258.34;124074;1099;104345;-81
2024/03/14 00:53:06;;;;;;;34.38;18.50;;;;;;;2.41;100.00;100254.74;123998;1099;104255;-81
2024/03/14 00:55:37;;;;;;;32.27;17.33;;;;;;;2.41;100.00;100259.92;123998;1099;104254;-80
2024/03/14 00:58:10;;;;;;;34.17;18.47;;;;;;;2.40;100.00;100247.79;124105;1099;104274;-81
2024/03/14 01:00:42;;;;;;;34.13;19.23;;;;;;;2.39;100.00;100253.76;124008;1099;104749;-80
2024/03/14 01:03:13;;;;;;;35.47;18.23;;;;;;;2.36;100.00;100247.50;124088;1099;104344;-80
2024/03/14 01:05:44;;;;;;;33.60;19.00;;;;;;;2.37;100.00;100257.03;124021;1099;104284;-80
2024/03/14 01:08:16;;;;;;;33.10;18.63;;;;;;;2.41;100.00;100246.97;123963;1098;104344;-81
2024/03/14 01:10:48;;;;;;;31.73;17.67;;;;;;;2.41;100.00;100256.45;124019;1099;104255;-80
2024/03/14 01:13:19;;;;;;;33.40;18.63;;;;;;;2.41;100.00;100253.86;124090;1099;104242;-82
2024/03/14 01:15:50;;;;;;;33.97;18.97;;;;;;;2.40;100.00;100245.20;123692;1099;104352;-80
2024/03/14 01:18:24;;;;;;;33.40;18.63;;;;;;;2.39;100.00;100247.70;124146;1099;104274;-81
2024/03/14 01:20:55;;;;;;;35.27;18.87;;;;;;;2.37;100.00;100250.19;123913;1099;104325;-81
2024/03/14 01:23:26;;;;;;;32.03;17.00;;;;;;;2.38;100.00;100257.13;124271;1099;104267;-81
2024/03/14 01:25:58;;;;;;;32.57;18.07;;;;;;;2.36;100.00;100263.92;123920;1099;104281;-80
2024/03/14 01:28:29;;;;;;;34.10;19.33;;;;;;;2.34;100.00;100258.64;123816;1099;104364;-80
2024/03/14 01:31:01;;;;;;;33.23;19.10;;;;;;;2.34;100.00;100261.23;124058;1099;104277;-80
2024/03/14 01:33:32;;;;;;;35.77;18.80;;;;;;;2.32;100.00;100262.83;124064;1099;104194;-81
2024/03/14 01:36:04;;;;;;;34.90;18.65;;;;;;;2.32;100.00;100262.83;124025;1099;104239;-81
2024/03/14 01:38:35;;;;;;;33.57;18.93;;;;;;;2.31;100.00;100262.73;124025;1099;104275;-80
2024/03/14 01:41:18;;;;;;;31.23;17.80;;;;;;;2.33;100.00;100263.72;124071;1099;104268;-81
2024/03/14 01:44:05;;;;;;;31.10;17.33;;;;;;;2.31;100.00;100260.14;123731;1099;104338;-80
2024/03/14 01:46:36;;;;;;;30.60;17.33;;;;;;;2.30;100.00;100260.93;123917;1099;104344;-80
2024/03/14 01:49:07;;;;;;;32.77;18.10;;;;;;;2.29;100.00;100260.05;124002;1099;104344;-80
2024/03/14 01:51:39;;;;;;;31.47;17.33;;;;;;;2.32;100.00;100261.91;123928;1099;105598;-80
2024/03/14 01:54:11;;;;;;;29.83;17.47;;;;;;;2.30;100.00;100253.16;124069;1099;104348;-79
2024/03/14 01:56:57;;;;;;;32.93;17.73;;;;;;;2.34;100.00;100260.34;123664;1099;104312;-79
2024/03/14 01:59:30;;;;;;;32.47;17.40;;;;;;;2.37;100.00;100254.44;123956;1098;104290;-79
2024/03/14 02:02:01;;;;;;;31.50;18.53;;;;;;;2.37;100.00;100257.03;123906;1099;104223;-80
2024/03/14 02:04:41;;;;;;;32.47;18.30;;;;;;;2.40;100.00;100252.05;123617;1099;104463;-80
2024/03/14 02:07:13;;;;;;;32.13;18.10;;;;;;;2.39;100.00;100271.88;124137;1099;104344;-79
2024/03/14 02:09:48;;;;;;;32.50;18.07;;;;;;;2.38;100.00;100270.08;123990;1099;104271;-79
2024/03/14 02:12:22;;;;;;;32.45;17.80;;;;;;;2.41;100.00;100271.98;123594;1099;104284;-79
2024/03/14 02:14:53;;;;;;;28.93;16.97;;;;;;;2.40;100.00;100273.69;123945;1099;104226;-79
2024/03/14 02:17:24;;;;;;;32.07;17.23;;;;;;;2.39;100.00;100264.11;123994;1099;104261;-79
2024/03/14 02:19:55;;;;;;;32.00;17.23;;;;;;;2.38;100.00;100272.67;123989;1099;104326;-79
2024/03/14 02:22:27;;;;;;;32.10;17.50;;;;;;;2.37;100.00;100263.13;123941;1099;104194;-79
2024/03/14 02:24:58;;;;;;;32.73;18.50;;;;;;;2.37;100.00;100265.72;124045;1099;104345;-80
2024/03/14 02:27:30;;;;;;;32.23;18.37;;;;;;;2.35;100.00;100262.11;123888;1099;104248;-81
2024/03/14 02:30:04;;;;;;;31.90;17.33;;;;;;;2.33;100.00;100266.31;123745;1099;104399;-79
2024/03/14 02:32:33;;;;;;;;;;;;;;;2.34;100.00;100270.70;123632;1099;104271;-79
2024/03/14 02:35:05;;;;;;;32.30;17.30;;;;;;;2.36;100.00;100265.62;123815;1099;104699;-79
2024/03/14 02:37:36;;;;;;;29.15;16.95;;;;;;;2.39;100.00;100266.70;123800;1099;104261;-79
2024/03/14 02:40:11;;;;;;;31.37;18.17;;;;;;;2.39;100.00;100274.48;123903;1099;104271;-79
2024/03/14 02:42:42;;;;;;;32.47;18.10;;;;;;;2.41;100.00;100270.28;124007;1099;104347;-79
2024/03/14 02:45:14;;;;;;;34.63;19.23;;;;;;;2.49;100.00;100265.59;123852;1099;104303;-79
2024/03/14 02:47:45;;;;;;;34.90;17.77;;;;;;;2.48;100.00;100269.00;123858;1099;104330;-80
2024/03/14 02:50:18;;;;;;;31.33;18.30;;;;;;;2.46;100.00;100266.31;123967;1099;104175;-81
2024/03/14 02:52:49;;;;;;;30.30;17.37;;;;;;;2.49;100.00;100270.77;123596;1099;104332;-79
2024/03/14 02:55:20;;;;;;;31.10;17.43;;;;;;;2.49;100.00;100271.69;123873;1099;104268;-79
2024/03/14 02:57:51;;;;;;;38.33;18.13;;;;;;;2.47;100.00;100281.03;123909;1099;104285;-79
2024/03/14 03:00:23;;;;;;;28.73;16.27;;;;;;;2.49;100.00;100276.88;123797;1099;104373;-79
2024/03/14 03:02:55;;;;;;;32.03;16.37;;;;;;;2.47;100.00;100275.86;123869;1099;104427;-79
2024/03/14 03:05:26;;;;;;;33.37;18.07;;;;;;;2.46;100.00;100279.27;123804;1099;104294;-79
2024/03/14 03:07:57;;;;;;;33.73;17.33;;;;;;;2.44;100.00;100280.84;123838;1099;104356;-80
2024/03/14 03:10:28;;;;;;;31.87;17.67;;;;;;;2.41;100.00;100277.16;123893;1099;104347;-79
2024/03/14 03:13:00;;;;;;;33.13;18.13;;;;;;;2.41;100.00;100282.34;123751;1099;104335;-79
2024/03/14 03:15:31;;;;;;;33.60;17.87;;;;;;;2.39;100.00;100279.66;123908;1099;104270;-78
2024/03/14 03:18:02;;;;;;;36.43;18.47;;;;;;;2.39;100.00;100281.36;123775;1098;104347;-80
2024/03/14 03:20:33;;;;;;;37.30;20.93;;;;;;;2.41;100.00;100287.52;123785;1098;104301;-80
2024/03/14 03:23:08;;;;;;;35.63;19.53;;;;;;;2.42;100.00;100289.33;123757;1099;104430;-79
2024/03/14 03:25:40;;;;;;;34.53;19.90;;;;;;;2.42;100.00;100287.63;124128;1099;104389;-80
2024/03/14 03:28:12;;;;;;;38.60;20.93;;;;;;;2.44;100.00;100287.72;124606;1099;104249;-80
2024/03/14 03:30:43;;;;;;;37.17;20.50;;;;;;;2.46;100.00;100297.39;124742;1099;104246;-80
2024/03/14 03:33:17;;;;;;;43.07;23.33;;;;;;;2.48;100.00;100289.72;125046;1099;104232;-79
2024/03/14 03:35:47;;;;;;;;;;;;;;;2.48;100.00;100295.79;124013;1098;104341;-80
2024/03/14 03:38:18;;;;;;;60.07;32.30;;;;;;;2.46;100.00;100292.22;123868;1099;104556;-79
2024/03/14 03:40:49;;;;;;;68.43;36.30;;;;;;;2.47;100.00;100288.80;123816;1099;104322;-79
2024/03/14 03:43:22;;;;;;;89.33;45.93;;;;;;;2.46;100.00;100293.89;124100;1099;104274;-79
2024/03/14 03:45:53;;;;;;;79.40;41.70;;;;;;;2.43;100.00;100291.09;123946;1099;104251;-79
2024/03/14 03:48:25;;;;;;;71.83;37.77;;;;;;;2.43;100.00;100289.42;123937;1099;104370;-79
2024/03/14 03:50:56;;;;;;;58.80;31.97;;;;;;;2.44;100.00;100296.38;123722;1099;104431;-79
2024/03/14 03:53:27;;;;;;;58.30;33.17;;;;;;;2.43;100.00;100294.61;123814;1099;104322;-79
2024/03/14 03:55:58;;;;;;;59.95;32.35;;;;;;;2.44;100.00;100298.08;123817;1099;104351;-79
2024/03/14 03:58:30;;;;;;;55.95;31.20;;;;;;;2.45;100.00;100290.41;123769;1099;104255;-80
2024/03/14 04:01:06;;;;;;;52.83;28.17;;;;;;;2.46;100.00;100294.80;123773;1099;104303;-79
2024/03/14 04:03:40;;;;;;;52.10;27.95;;;;;;;2.47;100.00;100299.16;123844;1099;104281;-79
2024/03/14 04:06:16;;;;;;;47.20;26.02;;;;;;;2.47;100.00;100299.16;124002;1099;104344;-79
2024/03/14 04:08:47;;;;;;;45.20;24.40;;;;;;;2.47;100.00;100296.58;123879;1099;104239;-79
2024/03/14 04:11:18;;;;;;;46.70;25.80;;;;;;;2.49;100.00;100297.59;123794;1099;104272;-79
2024/03/14 04:13:49;;;;;;;53.97;31.97;;;;;;;2.50;100.00;100308.84;123844;1099;104411;-79
2024/03/14 04:16:22;;;;;;;58.90;31.90;;;;;;;2.47;100.00;100301.75;123826;1099;104762;-79
2024/03/14 04:18:54;;;;;;;57.10;29.23;;;;;;;2.49;100.00;100315.73;123756;1098;104236;-79
2024/03/14 04:21:26;;;;;;;54.37;28.87;;;;;;;2.47;100.00;100309.52;123852;1099;104274;-79
2024/03/14 04:23:57;;;;;;;50.00;27.47;;;;;;;2.48;100.00;100318.22;123695;1099;104313;-79
2024/03/14 04:26:28;;;;;;;46.13;25.37;;;;;;;2.49;100.00;100317.39;124048;1099;104245;-79
2024/03/14 04:28:59;;;;;;;43.63;23.50;;;;;;;2.51;100.00;100321.00;123723;1099;104318;-80
2024/03/14 04:31:31;;;;;;;42.00;22.80;;;;;;;2.51;100.00;100321.00;123773;1099;104304;-79
2024/03/14 04:34:04;;;;;;;39.63;22.67;;;;;;;2.52;100.00;100325.36;123691;1099;104255;-79
2024/03/14 04:36:37;;;;;;;47.03;22.97;;;;;;;2.52;100.00;100333.13;123740;1099;104241;-79
2024/03/14 04:39:09;;;;;;;47.00;23.95;;;;;;;2.54;100.00;100322.88;123789;1099;104200;-79
2024/03/14 04:41:40;;;;;;;48.17;24.37;;;;;;;2.56;100.00;100329.96;123643;1099;104249;-78
2024/03/14 04:44:11;;;;;;;45.20;25.17;;;;;;;2.59;100.00;100335.34;123796;1099;104290;-80
2024/03/14 04:46:43;;;;;;;45.80;24.50;;;;;;;2.58;100.00;100332.65;123743;1099;104271;-79
2024/03/14 04:49:14;;;;;;;41.90;23.23;;;;;;;2.59;100.00;100334.45;123847;1099;104274;-78
2024/03/14 04:51:54;;;;;;;43.13;24.10;;;;;;;2.60;100.00;100331.97;123757;1099;104306;-78
2024/03/14 04:54:26;;;;;;;42.07;23.60;;;;;;;2.61;100.00;100333.73;123767;1099;104354;-78
2024/03/14 04:56:57;;;;;;;44.47;24.87;;;;;;;2.64;100.00;100336.52;123884;1099;105743;-79
2024/03/14 04:59:28;;;;;;;43.53;24.07;;;;;;;2.68;100.00;100340.20;123464;1099;104281;-79
2024/03/14 05:01:59;;;;;;;42.20;23.70;;;;;;;2.69;100.00;100337.70;123786;1099;104227;-78
2024/03/14 05:04:31;;;;;;;47.50;24.70;;;;;;;2.71;100.00;100340.39;123688;1099;104307;-79
2024/03/14 05:07:02;;;;;;;41.50;21.57;;;;;;;2.76;100.00;100349.39;123875;1099;104406;-78
2024/03/14 05:09:33;;;;;;;39.10;20.17;;;;;;;2.76;100.00;100346.80;123498;1099;104271;-78
2024/03/14 05:12:07;;;;;;;42.97;20.90;;;;;;;2.79;100.00;100344.41;123885;1099;104209;-78
2024/03/14 05:14:39;;;;;;;43.28;21.37;;;;;;;2.84;100.00;100350.77;123735;1099;104283;-79
2024/03/14 05:17:12;;;;;;;40.03;21.77;;;;;;;2.84;100.00;100353.36;124297;1099;104198;-78
2024/03/14 05:19:44;;;;;;;54.70;26.90;;;;;;;2.87;100.00;100358.73;123631;1098;104312;-78
2024/03/14 05:22:17;;;;;;;57.30;26.50;;;;;;;2.88;100.00;100344.99;123861;1099;104438;-78
2024/03/14 05:24:48;;;;;;;58.10;26.90;;;;;;;2.90;100.00;100352.86;123875;1099;104313;-78
2024/03/14 05:27:19;;;;;;;52.93;26.40;;;;;;;2.93;100.00;100363.43;124003;1099;104219;-79
2024/03/14 05:29:51;;;;;;;47.53;23.87;;;;;;;2.97;100.00;100354.14;123859;1099;104329;-79
2024/03/14 05:32:27;;;;;;;45.50;23.25;;;;;;;2.98;100.00;100355.95;123856;1099;104342;-79
2024/03/14 05:34:59;;;;;;;42.00;21.97;;;;;;;3.00;100.00;100354.34;124283;1098;104316;-79
2024/03/14 05:37:30;;;;;;;43.80;24.43;;;;;;;3.02;100.00;100357.91;124068;1099;104248;-79
2024/03/14 05:40:01;;;;;;;46.33;24.27;;;;;;;3.05;100.00;100363.30;124289;1099;104210;-78
2024/03/14 05:42:33;;;;;;;43.40;23.33;;;;;;;3.12;100.00;100362.89;124373;1099;104344;-79
2024/03/14 05:45:04;;;;;;;46.53;23.17;;;;;;;3.19;100.00;100370.23;124047;1099;104277;-79
2024/03/14 05:47:38;;;;;;;42.33;21.23;;;;;;;3.24;100.00;100362.75;124308;1099;104166;-78
2024/03/14 05:50:11;;;;;;;42.88;20.52;;;;;;;3.28;100.00;100364.75;124216;1099;104750;-78
2024/03/14 05:52:42;;;;;;;37.73;19.43;;;;;;;3.33;100.00;100371.11;123967;1099;104230;-79
2024/03/14 05:55:13;;;;;;;37.97;19.60;;;;;;;3.35;100.00;100368.61;124222;1099;104318;-79
2024/03/14 05:57:44;;;;;;;43.63;20.17;;;;;;;3.39;100.00;100375.80;124268;1099;104245;-78
2024/03/14 06:00:20;;;;;;;42.30;20.33;;;;;;;3.39;100.00;100375.80;124330;1099;104300;-79
2024/03/14 06:02:52;;;;;;;39.03;18.73;;;;;;;3.41;100.00;100377.70;124195;1099;104370;-79
2024/03/14 06:05:23;;;;;;;37.05;18.35;;;;;;;3.45;100.00;100378.77;124295;1099;104364;-79
2024/03/14 06:07:54;;;;;;;40.97;19.60;;;;;;;3.49;100.00;100377.25;124474;1099;104389;-79
2024/03/14 06:10:26;;;;;;;36.47;19.10;;;;;;;3.55;100.00;100381.14;124535;1099;104207;-78
2024/03/14 06:12:57;;;;;;;37.47;19.07;;;;;;;3.62;100.00;100382.41;124608;1098;104293;-78
2024/03/14 06:15:30;;;;;;;35.27;18.63;;;;;;;3.68;100.00;100392.28;124501;1099;104325;-79
2024/03/14 06:18:05;;;;;;;34.15;18.00;;;;;;;3.69;100.00;100389.75;125626;1099;104271;-78
2024/03/14 06:20:36;;;;;;;34.20;16.93;;;;;;;3.73;100.00;100391.74;124675;1099;104277;-78
2024/03/14 06:23:07;;;;;;;32.03;17.43;;;;;;;3.70;100.00;100388.07;124684;1099;104753;-78
2024/03/14 06:25:39;;;;;;;33.53;17.13;;;;;;;3.71;100.00;100392.44;124637;1099;104182;-78
2024/03/14 06:28:10;;;;;;;35.80;18.60;;;;;;;3.72;100.00;100404.62;124668;1099;104265;-79
2024/03/14 06:30:41;;;;;;;37.63;17.43;;;;;;;3.69;100.00;100409.63;124921;1098;104245;-80
2024/03/14 06:33:12;;;;;;;34.17;17.27;;;;;;;3.74;100.00;100406.52;124998;1098;104480;-78
2024/03/14 06:35:44;;;;;;;34.50;17.40;;;;;;;3.80;100.00;100410.28;124819;1099;104334;-78
2024/03/14 06:38:16;;;;;;;35.60;17.73;;;;;;;3.82;100.00;100416.45;124907;1099;104697;-78
2024/03/14 06:40:48;;;;;;;34.37;17.80;;;;;;;3.83;100.00;100418.27;125587;1099;104294;-78
2024/03/14 06:43:21;;;;;;;37.97;17.20;;;;;;;3.88;100.00;100412.56;124551;1099;104434;-78
2024/03/14 06:45:54;;;;;;;33.98;16.50;;;;;;;3.88;100.00;100409.97;125441;1099;104248;-80
2024/03/14 06:48:26;;;;;;;37.50;17.67;;;;;;;3.89;100.00;100414.33;125147;1099;103056;-80
2024/03/14 06:50:58;;;;;;;32.63;17.63;;;;;;;3.90;100.00;100421.33;125043;1099;102322;-79
2024/03/14 06:53:29;;;;;;;32.35;17.35;;;;;;;3.94;100.00;100418.12;124815;1099;104166;-81
2024/03/14 06:56:02;;;;;;;35.90;17.80;;;;;;;3.94;100.00;100425.00;124958;1099;104348;-79
2024/03/14 06:58:34;;;;;;;34.53;17.70;;;;;;;3.96;100.00;100424.30;124834;1099;119072;-81
2024/03/14 07:01:08;;;;;;;39.33;19.20;;;;;;;3.94;100.00;100425.91;124923;1099;102322;-80
2024/03/14 07:03:39;;;;;;;37.27;18.03;;;;;;;3.89;100.00;100440.29;125056;1099;102832;-80
2024/03/14 07:06:12;;;;;;;35.37;17.60;;;;;;;3.87;100.00;100441.02;124588;1099;104197;-81
2024/03/14 07:08:43;;;;;;;34.73;18.10;;;;;;;3.82;100.00;100445.01;125406;1098;104172;-80
2024/03/14 07:11:15;;;;;;;33.07;17.17;;;;;;;3.83;100.00;100439.03;124889;1099;104158;-80
2024/03/14 07:13:48;;;;;;;32.47;17.47;;;;;;;3.85;100.00;100446.12;124815;1099;104227;-80
2024/03/14 07:16:21;;;;;;;32.43;17.90;;;;;;;3.82;100.00;100443.33;125128;1099;104239;-79
2024/03/14 07:18:53;;;;;;;33.73;18.33;;;;;;;3.84;100.00;100453.81;124433;1099;111139;-79
2024/03/14 07:21:25;;;;;;;37.63;18.63;;;;;;;3.90;100.00;100449.88;125013;1099;104140;-80
2024/03/14 07:23:57;;;;;;;36.03;18.00;;;;;;;3.98;100.00;100455.55;124709;1099;104256;-80
2024/03/14 07:26:32;;;;;;;36.97;18.63;;;;;;;4.04;100.00;100449.84;124959;1099;104165;-79
2024/03/14 07:29:05;;;;;;;32.57;17.60;;;;;;;4.05;100.00;100449.94;124318;1098;104252;-79
2024/03/14 07:31:38;;;;;;;33.13;17.90;;;;;;;4.07;100.00;100448.32;124688;1099;104174;-79
2024/03/14 07:34:10;;;;;;;37.43;19.67;;;;;;;4.07;100.00;100458.70;124751;1099;102925;-80
2024/03/14 07:36:41;;;;;;;39.63;20.47;;;;;;;4.06;100.00;100464.69;125139;1098;104185;-80
2024/03/14 07:39:14;;;;;;;37.33;20.67;;;;;;;4.03;100.00;100466.22;124989;1099;104347;-81
2024/03/14 07:41:47;;;;;;;39.25;19.42;;;;;;;4.00;100.00;100469.51;124991;1099;104156;-79
2024/03/14 07:44:18;;;;;;;37.17;19.07;;;;;;;4.08;100.00;100469.98;124677;1099;103120;-79
2024/03/14 07:46:49;;;;;;;36.73;20.03;;;;;;;4.18;100.00;100461.08;125014;1099;104188;-80
2024/03/14 07:49:21;;;;;;;37.37;18.90;;;;;;;4.20;100.00;100470.73;125223;1099;104333;-80
2024/03/14 07:51:52;;;;;;;39.43;19.13;;;;;;;4.22;100.00;100470.83;124656;1099;103407;-79
2024/03/14 07:54:27;;;;;;;39.43;19.70;;;;;;;4.23;100.00;100470.91;124950;1099;102773;-80
2024/03/14 07:56:58;;;;;;;38.87;19.27;;;;;;;4.22;100.00;100482.09;125080;1098;104216;-80
2024/03/14 07:59:32;;;;;;;35.40;19.47;;;;;;;4.26;100.00;100480.61;125024;1099;104307;-80
2024/03/14 08:02:07;;;;;;;37.50;19.70;;;;;;;4.32;100.00;100475.78;124907;1099;104245;-79
2024/03/14 08:04:41;;;;;;;39.53;19.87;;;;;;;4.37;100.00;100476.06;124832;1098;103341;-80
2024/03/14 08:07:16;;;;;;;36.97;19.57;;;;;;;4.44;100.00;100483.40;125078;1099;102736;-80
2024/03/14 08:09:48;;;;;;;35.73;19.67;;;;;;;4.50;100.00;100481.16;125242;1099;102971;-79
2024/03/14 08:12:21;;;;;;;39.63;20.03;;;;;;;4.51;100.00;100482.97;125486;1099;104332;-79
2024/03/14 08:14:58;;;;;;;36.15;18.45;;;;;;;4.49;100.00;100487.19;125172;1099;102848;-80
2024/03/14 08:17:30;;;;;;;35.17;19.43;;;;;;;4.49;100.00;100485.48;125412;1098;102210;-80
2024/03/14 08:20:07;;;;;;;36.27;18.47;;;;;;;4.56;100.00;100491.93;125001;1099;102285;-78
2024/03/14 08:22:39;;;;;;;37.40;19.50;;;;;;;4.56;100.00;100498.84;125099;1099;104258;-80
2024/03/14 08:25:16;;;;;;;32.40;17.70;;;;;;;4.56;100.00;100502.32;124984;1099;104192;-80
2024/03/14 08:27:47;;;;;;;35.67;19.10;;;;;;;4.59;100.00;100496.42;124940;1099;104363;-79
2024/03/14 08:30:22;;;;;;;35.73;18.13;;;;;;;4.63;100.00;100501.89;124817;1099;108230;-79
2024/03/14 08:32:57;;;;;;;39.53;19.47;;;;;;;4.72;100.00;100503.23;125352;1099;104171;-79
2024/03/14 08:35:29;;;;;;;36.77;19.33;;;;;;;4.78;100.00;100508.80;125087;1099;104200;-79
2024/03/14 08:38:01;;;;;;;36.80;18.83;;;;;;;4.88;100.00;100505.95;125072;1099;101909;-81
2024/03/14 08:40:33;;;;;;;35.10;19.73;;;;;;;4.90;100.00;100504.32;125092;1099;119074;-80
2024/03/14 08:43:07;;;;;;;38.17;18.00;;;;;;;4.92;100.00;100505.30;125282;1098;104213;-79
2024/03/14 08:45:38;;;;;;;36.07;18.00;;;;;;;4.96;100.00;100499.48;125369;1099;104278;-79
2024/03/14 08:48:11;;;;;;;36.83;19.33;;;;;;;4.96;100.00;100507.28;125202;1099;103573;-80
2024/03/14 08:50:43;;;;;;;38.95;18.15;;;;;;;4.88;100.00;100508.55;125533;1099;102921;-79
2024/03/14 08:53:17;;;;;;;39.10;18.63;;;;;;;4.89;100.00;100512.92;125023;1099;104190;-79
2024/03/14 08:55:54;;;;;;;35.10;17.83;;;;;;;4.93;100.00;100509.70;124913;1099;104216;-79
2024/03/14 08:58:26;;;;;;;33.73;17.57;;;;;;;4.92;100.00;100515.70;125116;1099;103198;-79
2024/03/14 09:00:59;;;;;;;33.97;18.00;;;;;;;4.93;100.00;100517.50;127015;1098;111866;-78
2024/03/14 09:03:34;;;;;;;36.90;17.70;;;;;;;4.97;100.00;100519.48;125968;1099;102769;-79
2024/03/14 09:06:09;;;;;;;36.53;18.83;;;;;;;4.98;100.00;100518.66;125221;1099;103665;-80
2024/03/14 09:08:41;;;;;;;33.83;17.10;;;;;;;4.99;100.00;100523.06;125052;1098;104054;-79
2024/03/14 09:11:13;;;;;;;39.60;19.93;;;;;;;5.00;100.00;100524.87;124891;1099;102192;-78
2024/03/14 09:13:45;;;;;;;36.40;19.20;;;;;;;5.03;100.00;100522.45;125169;1099;104175;-79
2024/03/14 09:16:19;;;;;;;38.43;19.40;;;;;;;5.06;100.00;100518.22;124926;1098;104166;-78
2024/03/14 09:18:49;;;;;;;;;;;;;;;5.04;100.00;100518.13;125214;1099;102789;-80
2024/03/14 09:21:21;;;;;;;37.20;17.77;;;;;;;5.01;100.00;100520.55;125278;1099;103216;-79
2024/03/14 09:23:52;;;;;;;33.10;18.07;;;;;;;4.98;100.00;100518.66;125215;1099;104179;-79
2024/03/14 09:26:24;;;;;;;36.03;19.43;;;;;;;5.00;100.00;100516.14;124704;1099;104281;-80
2024/03/14 09:28:55;;;;;;;36.70;19.25;;;;;;;5.03;100.00;100518.92;124615;1099;104172;-79
2024/03/14 09:31:28;;;;;;;;;;;;;;;5.03;100.00;100519.84;125072;1099;104249;-80
2024/03/14 09:34:00;;;;;;;35.57;18.10;;;;;;;5.04;100.00;100520.73;124568;1099;102873;-79
2024/03/14 09:36:32;;;;;;;38.07;19.57;;;;;;;5.10;100.00;100523.69;124976;1099;104634;-79
2024/03/14 09:39:13;;;;;;;35.37;19.20;;;;;;;5.16;100.00;100518.84;124515;1099;104370;-80
2024/03/14 09:41:46;;;;;;;35.57;19.10;;;;;;;5.18;100.00;100521.53;125146;1098;104268;-79
2024/03/14 09:44:18;;;;;;;37.50;19.43;;;;;;;5.21;100.00;100516.50;124868;1099;104229;-79
2024/03/14 09:46:58;;;;;;;37.80;19.77;;;;;;;5.27;100.00;100511.66;124851;1099;102262;-78
2024/03/14 09:49:32;;;;;;;37.07;19.50;;;;;;;5.33;100.00;100509.41;124440;1098;104445;-80
2024/03/14 09:52:05;;;;;;;33.70;18.17;;;;;;;5.34;100.00;100507.69;125108;1099;112824;-79
2024/03/14 09:54:38;;;;;;;34.40;17.53;;;;;;;5.34;100.00;100513.77;124918;1098;104242;-78
2024/03/14 09:57:10;;;;;;;36.27;18.50;;;;;;;5.37;100.00;100519.16;125044;1099;102581;-80
2024/03/14 09:59:42;;;;;;;36.17;18.60;;;;;;;5.45;100.00;100513.50;125047;1099;104224;-79
2024/03/14 10:02:18;;;;;;;32.67;17.63;;;;;;;5.50;100.00;100515.56;125067;1099;104252;-79
2024/03/14 10:04:50;;;;;;;33.27;18.20;;;;;;;5.56;100.00;100520.20;124907;1099;104268;-79
2024/03/14 10:07:21;;;;;;;35.17;18.47;;;;;;;5.57;100.00;100524.60;125060;1099;104744;-79
2024/03/14 10:09:53;;;;;;;30.87;17.10;;;;;;;5.58;99.90;100522.09;125143;1099;101988;-79
2024/03/14 10:12:24;;;;;;;36.23;18.87;;;;;;;5.60;99.42;100516.97;124893;1099;104246;-80
2024/03/14 10:15:03;;;;;;;33.60;18.10;;;;;;;5.60;99.13;100514.36;124754;1099;104172;-79
2024/03/14 10:17:35;;;;;;;31.43;17.80;;;;;;;5.60;99.14;100516.08;126918;1099;101872;-80
2024/03/14 10:20:12;;;;;;;35.93;18.47;;;;;;;5.62;99.44;100517.94;126026;1099;102599;-79
2024/03/14 10:22:46;;;;;;;34.43;17.37;;;;;;;5.62;99.47;100519.66;126126;1098;119025;-78
2024/03/14 10:25:23;;;;;;;35.05;17.75;;;;;;;5.60;98.76;100519.57;124927;1099;102793;-78
2024/03/14 10:27:54;;;;;;;31.00;16.30;;;;;;;5.58;98.80;100524.69;125665;1098;102722;-79
2024/03/14 10:30:28;;;;;;;30.63;16.40;;;;;;;5.55;97.63;100526.23;125261;1099;103145;-79
2024/03/14 10:32:59;;;;;;;29.70;16.73;;;;;;;5.55;98.34;100518.42;124954;1099;102749;-78
2024/03/14 10:35:31;;;;;;;32.37;16.80;;;;;;;5.59;99.04;100522.97;126052;1099;101930;-78
2024/03/14 10:38:11;;;;;;;32.83;16.73;;;;;;;5.62;97.93;100528.34;126661;1099;104240;-78
2024/03/14 10:40:45;;;;;;;32.00;16.40;;;;;;;5.61;98.22;100528.27;125220;1098;104169;-77
2024/03/14 10:43:17;;;;;;;35.23;17.10;;;;;;;5.64;97.82;100518.94;125178;1099;111627;-79
2024/03/14 10:45:52;;;;;;;37.35;17.70;;;;;;;5.65;98.23;100522.42;125206;1099;104290;-79
2024/03/14 10:48:28;;;;;;;28.13;16.43;;;;;;;5.68;97.96;100526.09;125553;1099;102708;-79
2024/03/14 10:51:00;;;;;;;36.00;18.63;;;;;;;5.74;98.31;100516.02;125220;1099;104369;-79
2024/03/14 10:53:35;;;;;;;32.97;16.90;;;;;;;5.75;98.05;100523.03;125207;1099;104657;-79
2024/03/14 10:56:13;;;;;;;30.83;17.60;;;;;;;5.76;98.57;100514.41;124514;1099;102804;-79
2024/03/14 10:58:48;;;;;;;30.53;16.10;;;;;;;5.80;97.10;100514.55;125473;1098;104290;-79
2024/03/14 11:01:20;;;;;;;32.90;17.07;;;;;;;5.80;97.15;100525.89;126721;1099;102672;-78
2024/03/14 11:03:54;;;;;;;33.00;16.73;;;;;;;5.84;97.60;100517.41;126458;1098;104351;-79
2024/03/14 11:06:33;;;;;;;30.30;17.02;;;;;;;5.88;97.11;100521.98;125302;1099;104172;-79
2024/03/14 11:09:15;;;;;;;33.67;17.50;;;;;;;5.95;97.08;100512.79;124624;1099;104233;-79
2024/03/14 11:11:54;;;;;;;33.87;18.17;;;;;;;5.99;96.66;100516.52;125605;1099;104243;-78
2024/03/14 11:14:31;;;;;;;34.30;18.00;;;;;;;6.01;97.19;100518.36;124906;1099;103115;-79
2024/03/14 11:17:05;;;;;;;34.47;17.57;;;;;;;5.93;96.71;100517.03;125022;1099;104181;-79
2024/03/14 11:19:51;;;;;;;34.45;18.20;;;;;;;5.89;96.88;100521.19;124738;1099;104245;-79
2024/03/14 11:22:24;;;;;;;34.83;17.92;;;;;;;5.90;95.89;100527.28;125015;1099;104242;-80